createdAt,value
2023-02-06T00:00:08.826Z,103398.50
2023-02-06T00:02:38.997Z,103398.78
2023-02-06T00:05:09.586Z,103400.72
2023-02-06T00:07:39.695Z,103400.00
2023-02-06T00:10:10.491Z,103407.84
2023-02-06T00:12:40.531Z,103405.22
2023-02-06T00:15:13.446Z,103395.13
2023-02-06T00:17:43.656Z,103393.66
2023-02-06T00:20:15.156Z,103397.81
2023-02-06T00:22:45.212Z,103391.06
2023-02-06T00:25:16.134Z,103385.84
2023-02-06T00:27:46.210Z,103397.13
2023-02-06T00:30:19.281Z,103397.81
2023-02-06T00:32:50.059Z,103395.31
2023-02-06T00:35:20.222Z,103408.78
2023-02-06T00:37:50.380Z,103402.47
2023-02-06T00:40:20.984Z,103396.97
2023-02-06T00:42:51.231Z,103389.31
2023-02-06T00:45:24.137Z,103391.56
2023-02-06T00:47:57.448Z,103393.25
2023-02-06T00:50:27.504Z,103402.72
2023-02-06T00:52:57.689Z,103396.19
2023-02-06T00:55:27.764Z,103391.06
2023-02-06T00:57:58.381Z,103393.56
2023-02-06T01:00:31.281Z,103397.50
2023-02-06T01:03:01.451Z,103397.06
2023-02-06T01:05:31.882Z,103395.13
2023-02-06T01:08:04.270Z,103373.84
2023-02-06T01:10:34.719Z,103385.66
2023-02-06T01:13:04.794Z,103392.63
2023-02-06T01:15:37.535Z,103401.41
2023-02-06T01:18:08.137Z,103405.22
2023-02-06T01:20:38.609Z,103410.69
2023-02-06T01:23:08.828Z,103410.69
2023-02-06T01:25:40.130Z,103411.38
2023-02-06T01:28:10.228Z,103416.59
2023-02-06T01:30:43.070Z,103412.09
2023-02-06T01:33:13.364Z,103406.09
2023-02-06T01:35:43.520Z,103394.28
2023-02-06T01:38:14.006Z,103394.44
2023-02-06T01:40:44.233Z,103400.97
2023-02-06T01:43:19.712Z,103397.31
2023-02-06T01:45:53.093Z,103391.47
2023-02-06T01:48:25.384Z,103393.25
2023-02-06T01:50:56.976Z,103392.63
2023-02-06T01:53:27.785Z,103398.66
2023-02-06T01:55:58.665Z,103392.66
2023-02-06T01:58:30.921Z,103398.84
2023-02-06T02:01:04.641Z,103359.19
2023-02-06T02:03:38.784Z,103412.78
2023-02-06T02:06:10.562Z,103410.03
2023-02-06T02:08:42.963Z,103411.22
2023-02-06T02:11:16.245Z,103419.59
2023-02-06T02:13:46.507Z,103418.31
2023-02-06T02:16:22.835Z,103419.00
2023-02-06T02:19:02.518Z,103418.50
2023-02-06T02:21:47.621Z,103412.84
2023-02-06T02:24:24.635Z,103425.94
2023-02-06T02:27:15.082Z,103429.34
2023-02-06T02:30:07.624Z,103430.66
2023-02-06T02:32:53.968Z,103435.13
2023-02-06T02:35:30.994Z,103430.00
2023-02-06T02:38:14.793Z,103423.59
2023-02-06T02:40:48.684Z,103424.50
2023-02-06T02:43:24.163Z,103417.31
2023-02-06T02:45:57.466Z,103413.91
2023-02-06T02:48:29.497Z,103417.19
2023-02-06T02:51:03.246Z,103414.06
2023-02-06T02:53:34.065Z,103424.13
2023-02-06T02:56:04.513Z,103425.19
2023-02-06T02:58:36.977Z,103425.69
2023-02-06T03:01:08.936Z,103426.75
2023-02-06T03:03:40.375Z,103425.97
2023-02-06T03:06:29.436Z,103431.47
2023-02-06T03:09:02.373Z,103424.94
2023-02-06T03:11:32.789Z,103434.75
2023-02-06T03:14:06.300Z,103439.72
2023-02-06T03:16:39.813Z,103439.16
2023-02-06T03:19:13.812Z,103430.66
2023-02-06T03:21:48.564Z,103426.22
2023-02-06T03:24:22.464Z,103418.41
2023-02-06T03:26:55.093Z,103411.19
2023-02-06T03:29:25.636Z,103422.94
2023-02-06T03:31:58.127Z,103430.41
2023-02-06T03:34:32.851Z,103423.50
2023-02-06T03:37:05.769Z,103428.97
2023-02-06T03:39:36.132Z,103421.41
2023-02-06T03:42:07.451Z,103427.91
2023-02-06T03:44:38.963Z,103429.91
2023-02-06T03:47:11.016Z,103417.22
2023-02-06T03:49:42.308Z,103410.00
2023-02-06T03:52:16.662Z,103405.97
2023-02-06T03:54:50.505Z,103418.25
2023-02-06T03:57:22.048Z,103410.38
2023-02-06T03:59:52.182Z,103405.81
2023-02-06T04:02:23.802Z,103399.94
2023-02-06T04:04:54.365Z,103405.06
2023-02-06T04:07:28.472Z,103405.44
2023-02-06T04:09:58.572Z,103394.19
2023-02-06T04:12:28.837Z,103381.50
2023-02-06T04:14:58.949Z,103380.59
2023-02-06T04:17:46.372Z,103379.16
2023-02-06T04:20:19.150Z,103375.00
2023-02-06T04:22:52.042Z,103377.19
2023-02-06T04:25:22.090Z,103377.97
2023-02-06T04:27:52.456Z,103379.41
2023-02-06T04:30:22.557Z,103379.41
2023-02-06T04:32:52.898Z,103389.19
2023-02-06T04:35:23.594Z,103385.94
2023-02-06T04:37:56.339Z,103380.56
2023-02-06T04:40:26.599Z,103377.03
2023-02-06T04:42:56.599Z,103380.31
2023-02-06T04:45:26.586Z,103370.41
2023-02-06T04:47:59.181Z,103370.28
2023-02-06T04:50:31.468Z,103364.75
2023-02-06T04:53:04.115Z,103365.31
2023-02-06T04:55:34.441Z,103372.22
2023-02-06T04:58:04.879Z,103372.09
2023-02-06T05:00:38.706Z,103369.22
2023-02-06T05:03:08.977Z,103373.25
2023-02-06T05:05:39.192Z,103364.50
2023-02-06T05:08:11.896Z,103372.75
2023-02-06T05:10:41.954Z,103375.72
2023-02-06T05:13:12.037Z,103379.66
2023-02-06T05:15:42.406Z,103390.50
2023-02-06T05:18:12.550Z,103388.25
2023-02-06T05:20:42.632Z,103385.41
2023-02-06T05:23:15.550Z,103382.41
2023-02-06T05:25:45.715Z,103387.78
2023-02-06T05:28:15.966Z,103375.09
2023-02-06T05:30:46.318Z,103378.63
2023-02-06T05:33:16.493Z,103376.91
2023-02-06T05:35:46.575Z,103382.00
2023-02-06T05:38:19.298Z,103369.34
2023-02-06T05:40:52.981Z,103382.94
2023-02-06T05:43:23.136Z,103395.22
2023-02-06T05:45:53.429Z,103399.81
2023-02-06T05:48:23.499Z,103400.69
2023-02-06T05:50:54.317Z,103409.59
2023-02-06T05:53:26.916Z,103405.38
2023-02-06T05:55:57.021Z,103407.59
2023-02-06T05:58:27.112Z,103406.16
2023-02-06T06:00:57.076Z,103409.56
2023-02-06T06:03:27.152Z,103396.34
2023-02-06T06:05:57.289Z,103396.72
2023-02-06T06:08:30.171Z,103395.78
2023-02-06T06:11:02.157Z,103406.56
2023-02-06T06:13:32.731Z,103413.59
2023-02-06T06:16:02.871Z,103414.91
2023-02-06T06:18:33.046Z,103424.44
2023-02-06T06:21:03.131Z,103417.78
2023-02-06T06:23:35.858Z,103407.63
2023-02-06T06:26:05.967Z,103418.25
2023-02-06T06:28:38.609Z,103422.81
2023-02-06T06:31:11.884Z,103417.63
2023-02-06T06:33:42.399Z,103424.19
2023-02-06T06:36:14.473Z,103432.56
2023-02-06T06:38:47.151Z,103433.38
2023-02-06T06:41:17.339Z,103440.41
2023-02-06T06:43:47.449Z,103440.16
2023-02-06T06:46:18.957Z,103443.19
2023-02-06T06:48:51.153Z,103451.94
2023-02-06T06:51:21.175Z,103454.31
2023-02-06T06:53:53.995Z,103459.13
2023-02-06T06:56:24.094Z,103461.19
2023-02-06T06:58:54.214Z,103459.53
2023-02-06T07:01:25.385Z,103453.63
2023-02-06T07:03:56.360Z,103449.19
2023-02-06T07:06:26.391Z,103452.47
2023-02-06T07:08:59.247Z,103451.41
2023-02-06T07:11:29.323Z,103437.81
2023-02-06T07:13:59.445Z,103439.81
2023-02-06T07:16:29.614Z,103436.16
2023-02-06T07:19:00.069Z,103441.00
2023-02-06T07:21:30.127Z,103448.31
2023-02-06T07:24:07.725Z,103457.84
2023-02-06T07:26:37.801Z,103461.75
2023-02-06T07:29:07.806Z,103456.97
2023-02-06T07:31:37.883Z,103453.31
2023-02-06T07:34:08.016Z,103453.44
2023-02-06T07:36:38.109Z,103453.56
2023-02-06T07:39:10.781Z,103455.25
2023-02-06T07:41:41.093Z,103457.84
2023-02-06T07:44:13.010Z,103456.97
2023-02-06T07:46:43.885Z,103453.81
2023-02-06T07:49:14.998Z,103457.09
2023-02-06T07:51:46.184Z,103456.44
2023-02-06T07:54:20.821Z,103459.28
2023-02-06T07:56:51.011Z,103460.34
2023-02-06T07:59:21.211Z,103468.84
2023-02-06T08:01:51.332Z,103462.44
2023-02-06T08:04:21.570Z,103468.47
2023-02-06T08:06:51.919Z,103456.81
2023-02-06T08:09:24.633Z,103464.13
2023-02-06T08:11:55.026Z,103468.47
2023-02-06T08:14:25.376Z,103467.53
2023-02-06T08:16:57.674Z,103463.63
2023-02-06T08:19:28.025Z,103464.25
2023-02-06T08:21:58.143Z,103463.25
2023-02-06T08:24:31.053Z,103462.06
2023-02-06T08:27:01.123Z,103479.47
2023-02-06T08:29:31.400Z,103460.09
2023-02-06T08:32:02.151Z,103461.13
2023-02-06T08:34:32.409Z,103452.34
2023-02-06T08:37:02.523Z,103455.22
2023-02-06T08:39:35.388Z,103459.91
2023-02-06T08:42:05.512Z,103456.75
2023-02-06T08:44:35.636Z,103454.50
2023-02-06T08:47:10.516Z,103459.09
2023-02-06T08:49:40.951Z,103452.78
2023-02-06T08:52:11.037Z,103451.91
2023-02-06T08:54:43.741Z,103452.28
2023-02-06T08:57:14.969Z,103437.84
2023-02-06T08:59:45.609Z,103439.16
2023-02-06T09:02:15.726Z,103435.19
2023-02-06T09:04:46.123Z,103434.38
2023-02-06T09:07:17.320Z,103432.66
2023-02-06T09:09:50.130Z,103421.53
2023-02-06T09:12:20.309Z,103414.53
2023-02-06T09:14:50.618Z,103416.94
2023-02-06T09:17:20.720Z,103418.31
2023-02-06T09:19:51.129Z,103426.16
2023-02-06T09:22:21.199Z,103426.22
2023-02-06T09:24:54.306Z,103418.19
2023-02-06T09:27:24.560Z,103411.25
2023-02-06T09:29:54.927Z,103408.59
2023-02-06T09:32:25.347Z,103414.59
2023-02-06T09:34:55.605Z,103413.13
2023-02-06T09:37:25.642Z,103405.75
2023-02-06T09:39:58.230Z,103417.22
2023-02-06T09:42:33.394Z,103411.09
2023-02-06T09:45:05.461Z,103401.53
2023-02-06T09:47:37.176Z,103407.19
2023-02-06T09:50:09.351Z,103410.09
2023-02-06T09:52:52.260Z,103411.66
2023-02-06T09:55:40.620Z,103412.97
2023-02-06T09:58:16.885Z,103415.06
2023-02-06T10:00:49.527Z,103410.91
2023-02-06T10:03:28.834Z,103414.72
2023-02-06T10:06:05.549Z,103419.63
2023-02-06T10:08:40.117Z,103390.44
2023-02-06T10:11:15.859Z,103374.59
2023-02-06T10:13:49.887Z,103407.41
2023-02-06T10:16:28.642Z,103412.63
2023-02-06T10:19:01.774Z,103410.91
2023-02-06T10:21:35.103Z,103406.03
2023-02-06T10:24:09.983Z,103399.03
2023-02-06T10:26:43.254Z,103402.59
2023-02-06T10:29:17.419Z,103401.59
2023-02-06T10:31:53.018Z,103395.84
2023-02-06T10:34:34.135Z,103399.94
2023-02-06T10:37:11.818Z,103387.13
2023-02-06T10:39:52.219Z,103390.31
2023-02-06T10:42:30.074Z,103386.97
2023-02-06T10:45:18.932Z,103382.25
2023-02-06T10:47:54.401Z,103382.66
2023-02-06T10:50:27.798Z,103383.00
2023-02-06T10:52:59.110Z,103387.97
2023-02-06T10:55:30.803Z,103375.50
2023-02-06T10:58:07.453Z,103380.81
2023-02-06T11:00:38.073Z,103381.34
2023-02-06T11:03:09.550Z,103378.66
2023-02-06T11:05:40.072Z,103368.28
2023-02-06T11:08:13.736Z,103366.53
2023-02-06T11:10:45.329Z,103370.69
2023-02-06T11:13:22.958Z,103362.28
2023-02-06T11:15:57.462Z,103371.22
2023-02-06T11:18:31.497Z,103378.31
2023-02-06T11:21:03.977Z,103370.84
2023-02-06T11:23:35.555Z,103335.97
2023-02-06T11:26:14.212Z,103380.56
2023-02-06T11:28:52.880Z,103385.66
2023-02-06T11:31:24.492Z,103382.19
2023-02-06T11:33:55.694Z,103382.00
2023-02-06T11:36:29.187Z,103372.75
2023-02-06T11:39:00.749Z,103372.47
2023-02-06T11:41:32.140Z,103370.66
2023-02-06T11:44:06.709Z,103373.00
2023-02-06T11:46:38.922Z,103373.16
2023-02-06T11:49:10.610Z,103382.56
2023-02-06T11:51:51.976Z,103380.06
2023-02-06T11:54:24.300Z,103379.47
2023-02-06T11:56:58.488Z,103367.03
2023-02-06T11:59:33.894Z,103370.44
2023-02-06T12:02:05.829Z,103366.34
2023-02-06T12:04:39.146Z,103368.81
2023-02-06T12:07:16.719Z,103375.28
2023-02-06T12:09:46.770Z,103377.47
2023-02-06T12:12:22.383Z,103379.38
2023-02-06T12:14:57.685Z,103374.88
2023-02-06T12:17:29.946Z,103371.63
2023-02-06T12:20:02.938Z,103377.34
2023-02-06T12:22:36.152Z,103382.84
2023-02-06T12:25:07.292Z,103378.84
2023-02-06T12:27:39.636Z,103376.13
2023-02-06T12:30:30.567Z,103378.16
2023-02-06T12:33:06.282Z,103380.09
2023-02-06T12:35:39.316Z,103387.22
2023-02-06T12:38:14.706Z,103391.97
2023-02-06T12:40:51.149Z,103378.75
2023-02-06T12:43:21.917Z,103386.69
2023-02-06T12:45:58.333Z,103380.66
2023-02-06T12:48:32.133Z,103380.81
2023-02-06T12:51:10.137Z,103375.31
2023-02-06T12:53:41.714Z,103379.38
2023-02-06T12:56:16.325Z,103374.81
2023-02-06T12:58:53.362Z,103382.13
2023-02-06T13:01:38.843Z,103379.78
2023-02-06T13:04:15.377Z,103371.50
2023-02-06T13:06:49.450Z,103368.88
2023-02-06T13:09:23.775Z,103375.81
2023-02-06T13:11:54.848Z,103374.91
2023-02-06T13:14:26.905Z,103380.00
2023-02-06T13:17:00.135Z,103376.50
2023-02-06T13:19:53.079Z,103373.34
2023-02-06T13:22:47.106Z,103367.69
2023-02-06T13:25:32.496Z,103373.66
2023-02-06T13:28:03.577Z,103377.63
2023-02-06T13:30:50.692Z,103372.75
2023-02-06T13:33:22.346Z,103380.13
2023-02-06T13:36:02.020Z,103374.91
2023-02-06T13:38:38.850Z,103375.22
2023-02-06T13:41:29.426Z,103379.25
2023-02-06T13:44:00.729Z,103372.00
2023-02-06T13:46:39.773Z,103376.25
2023-02-06T13:49:19.200Z,103376.31
2023-02-06T13:51:53.041Z,103375.84
2023-02-06T13:54:43.486Z,103386.56
2023-02-06T13:57:19.254Z,103383.97
2023-02-06T13:59:51.960Z,103391.91
2023-02-06T14:02:27.701Z,103395.91
2023-02-06T14:04:58.428Z,103400.44
2023-02-06T14:07:38.329Z,103394.44
2023-02-06T14:10:30.065Z,103395.69
2023-02-06T14:13:08.240Z,103395.59
2023-02-06T14:15:41.455Z,103393.78
2023-02-06T14:18:30.454Z,103391.53
2023-02-06T14:21:05.000Z,103390.25
2023-02-06T14:23:45.596Z,103385.63
2023-02-06T14:26:21.372Z,103391.25
2023-02-06T14:28:55.608Z,103397.41
2023-02-06T14:31:36.015Z,103382.94
2023-02-06T14:34:22.215Z,103382.41
2023-02-06T14:37:03.385Z,103386.88
2023-02-06T14:39:42.601Z,103380.66
2023-02-06T14:42:15.909Z,103378.53
2023-02-06T14:44:46.985Z,103368.53
2023-02-06T14:47:19.444Z,103376.50
2023-02-06T14:49:50.778Z,103387.06
2023-02-06T14:52:22.810Z,103380.00
2023-02-06T14:54:55.981Z,103380.81
2023-02-06T14:57:28.210Z,103389.97
2023-02-06T14:59:59.912Z,103390.94
2023-02-06T15:02:32.219Z,103387.47
2023-02-06T15:05:03.098Z,103391.69
2023-02-06T15:07:34.554Z,103391.13
2023-02-06T15:10:09.428Z,103390.34
2023-02-06T15:12:39.917Z,103400.22
2023-02-06T15:15:20.346Z,103401.06
2023-02-06T15:18:00.133Z,103411.56
2023-02-06T15:20:37.638Z,103414.88
2023-02-06T15:23:17.565Z,103413.97
2023-02-06T15:26:04.612Z,103410.94
2023-02-06T15:28:38.282Z,103406.28
2023-02-06T15:31:18.076Z,103419.13
2023-02-06T15:33:51.116Z,103415.97
2023-02-06T15:36:25.630Z,103423.19
2023-02-06T15:38:55.823Z,103426.59
2023-02-06T15:41:30.887Z,103423.09
2023-02-06T15:44:03.640Z,103420.75
2023-02-06T15:46:33.985Z,103414.88
2023-02-06T15:49:04.385Z,103411.47
2023-02-06T15:51:42.276Z,103414.09
2023-02-06T15:54:20.819Z,103416.09
2023-02-06T15:56:54.924Z,103412.81
2023-02-06T15:59:26.522Z,103420.44
2023-02-06T16:01:58.341Z,103427.41
2023-02-06T16:04:30.938Z,103433.81
2023-02-06T16:07:03.474Z,103424.66
2023-02-06T16:09:34.759Z,103424.28
2023-02-06T16:12:07.945Z,103439.88
2023-02-06T16:14:39.695Z,103434.63
2023-02-06T16:17:26.551Z,103443.16
2023-02-06T16:19:57.884Z,103433.19
2023-02-06T16:22:29.064Z,103432.44
2023-02-06T16:25:14.570Z,103433.50
2023-02-06T16:27:48.342Z,103425.50
2023-02-06T16:30:28.402Z,103426.81
2023-02-06T16:32:59.295Z,103423.59
2023-02-06T16:35:30.602Z,103426.72
2023-02-06T16:38:00.693Z,103428.44
2023-02-06T16:40:30.975Z,103436.78
2023-02-06T16:43:03.922Z,103430.63
2023-02-06T16:45:34.091Z,103431.31
2023-02-06T16:48:04.168Z,103425.16
2023-02-06T16:50:35.781Z,103424.22
2023-02-06T16:53:06.253Z,103433.66
2023-02-06T16:55:37.026Z,103441.25
2023-02-06T16:58:09.701Z,103455.00
2023-02-06T17:00:39.782Z,103451.59
2023-02-06T17:03:10.484Z,103455.13
2023-02-06T17:05:41.743Z,103441.25
2023-02-06T17:08:16.519Z,103461.78
2023-02-06T17:10:47.128Z,103467.81
2023-02-06T17:13:21.313Z,103462.97
2023-02-06T17:15:53.125Z,103453.16
2023-02-06T17:18:23.776Z,103462.84
2023-02-06T17:20:56.299Z,103460.09
2023-02-06T17:23:26.653Z,103460.47
2023-02-06T17:25:56.725Z,103469.91
2023-02-06T17:28:29.474Z,103468.47
2023-02-06T17:30:59.948Z,103470.56
2023-02-06T17:33:30.151Z,103473.78
2023-02-06T17:36:00.359Z,103484.50
2023-02-06T17:38:30.668Z,103487.00
2023-02-06T17:41:00.699Z,103479.44
2023-02-06T17:43:36.257Z,103485.69
2023-02-06T17:46:06.400Z,103484.25
2023-02-06T17:48:41.254Z,103478.38
2023-02-06T17:51:11.327Z,103484.78
2023-02-06T17:53:41.393Z,103484.91
2023-02-06T17:56:13.269Z,103478.00
2023-02-06T17:58:46.508Z,103481.38
2023-02-06T18:01:17.407Z,103476.81
2023-02-06T18:03:48.107Z,103485.69
2023-02-06T18:06:18.323Z,103483.22
2023-02-06T18:08:48.740Z,103487.41
2023-02-06T18:11:19.895Z,103481.00
2023-02-06T18:13:53.773Z,103483.72
2023-02-06T18:16:25.003Z,103482.28
2023-02-06T18:18:55.769Z,103473.91
2023-02-06T18:21:29.405Z,103473.91
2023-02-06T18:24:00.375Z,103449.72
2023-02-06T18:26:30.532Z,103475.50
2023-02-06T18:29:05.440Z,103477.31
2023-02-06T18:31:37.912Z,103476.00
2023-02-06T18:34:09.864Z,103477.19
2023-02-06T18:36:40.798Z,103474.97
2023-02-06T18:39:10.928Z,103472.22
2023-02-06T18:41:53.539Z,103478.59
2023-02-06T18:44:26.777Z,103481.75
2023-02-06T18:46:57.005Z,103488.03
2023-02-06T18:49:27.040Z,103489.31
2023-02-06T18:51:57.155Z,103491.25
2023-02-06T18:54:28.302Z,103492.28
2023-02-06T18:56:58.402Z,103489.53
2023-02-06T18:59:31.213Z,103482.22
2023-02-06T19:02:01.653Z,103489.25
2023-02-06T19:04:31.826Z,103490.00
2023-02-06T19:07:02.144Z,103494.44
2023-02-06T19:09:32.266Z,103493.25
2023-02-06T19:12:02.474Z,103495.75
2023-02-06T19:14:35.165Z,103490.78
2023-02-06T19:17:05.246Z,103498.88
2023-02-06T19:19:35.400Z,103487.09
2023-02-06T19:22:05.761Z,103488.41
2023-02-06T19:24:35.940Z,103484.09
2023-02-06T19:27:05.964Z,103486.69
2023-02-06T19:29:38.831Z,103482.38
2023-02-06T19:32:10.069Z,103487.31
2023-02-06T19:34:41.072Z,103480.56
2023-02-06T19:37:12.687Z,103482.78
2023-02-06T19:39:44.503Z,103470.47
2023-02-06T19:42:16.960Z,103476.06
2023-02-06T19:44:53.874Z,103486.41
2023-02-06T19:47:24.322Z,103483.75
2023-02-06T19:49:55.075Z,103483.88
2023-02-06T19:52:26.154Z,103482.94
2023-02-06T19:54:56.397Z,103491.03
2023-02-06T19:57:26.443Z,103481.84
2023-02-06T19:59:59.293Z,103482.25
2023-02-06T20:02:29.477Z,103489.41
2023-02-06T20:05:02.319Z,103488.50
2023-02-06T20:07:33.003Z,103485.63
2023-02-06T20:10:03.609Z,103486.81
2023-02-06T20:12:33.944Z,103482.00
2023-02-06T20:15:06.976Z,103482.41
2023-02-06T20:17:37.133Z,103484.34
2023-02-06T20:20:07.986Z,103484.75
2023-02-06T20:22:40.094Z,103492.28
2023-02-06T20:25:12.110Z,103488.22
2023-02-06T20:27:42.232Z,103488.63
2023-02-06T20:30:15.619Z,103481.53
2023-02-06T20:32:45.858Z,103496.44
2023-02-06T20:35:16.125Z,103492.13
2023-02-06T20:37:46.249Z,103481.66
2023-02-06T20:40:17.782Z,103486.97
2023-02-06T20:42:47.945Z,103483.34
2023-02-06T20:45:21.052Z,103479.94
2023-02-06T20:47:51.372Z,103473.13
2023-02-06T20:50:21.498Z,103468.56
2023-02-06T20:52:51.791Z,103468.25
2023-02-06T20:55:22.079Z,103469.28
2023-02-06T20:57:52.853Z,103482.09
2023-02-06T21:00:25.846Z,103475.94
2023-02-06T21:02:56.180Z,103476.03
2023-02-06T21:05:26.446Z,103475.88
2023-02-06T21:07:57.636Z,103492.03
2023-02-06T21:10:27.990Z,103476.25
2023-02-06T21:12:58.216Z,103481.28
2023-02-06T21:15:31.132Z,103478.81
2023-02-06T21:18:01.662Z,103484.59
2023-02-06T21:20:32.255Z,103491.28
2023-02-06T21:23:02.967Z,103485.03
2023-02-06T21:25:33.166Z,103484.00
2023-02-06T21:28:03.495Z,103489.22
2023-02-06T21:30:36.725Z,103505.94
2023-02-06T21:33:07.225Z,103498.25
2023-02-06T21:35:39.503Z,103503.22
2023-02-06T21:38:09.929Z,103505.94
2023-02-06T21:40:39.996Z,103510.25
2023-02-06T21:43:10.074Z,103505.03
2023-02-06T21:45:43.135Z,103507.50
2023-02-06T21:48:13.301Z,103511.84
2023-02-06T21:50:45.085Z,103510.91
2023-02-06T21:53:15.253Z,103505.69
2023-02-06T21:55:45.646Z,103504.50
2023-02-06T21:58:17.154Z,103510.47
2023-02-06T22:00:50.383Z,103505.22
2023-02-06T22:03:22.886Z,103505.97
2023-02-06T22:05:53.078Z,103516.25
2023-02-06T22:08:23.639Z,103518.81
2023-02-06T22:10:53.775Z,103520.50
2023-02-06T22:13:24.028Z,103520.59
2023-02-06T22:15:57.438Z,103520.31
2023-02-06T22:18:28.856Z,103533.72
2023-02-06T22:21:05.632Z,103528.88
2023-02-06T22:23:36.018Z,103484.38
2023-02-06T22:26:06.928Z,103531.00
2023-02-06T22:28:37.420Z,103535.38
2023-02-06T22:31:11.152Z,103542.34
2023-02-06T22:33:41.770Z,103552.25
2023-02-06T22:36:13.022Z,103561.59
2023-02-06T22:38:44.385Z,103553.53
2023-02-06T22:41:15.772Z,103563.97
2023-02-06T22:43:46.931Z,103558.50
2023-02-06T22:46:23.754Z,103555.25
2023-02-06T22:48:54.460Z,103565.06
2023-02-06T22:51:25.012Z,103580.09
2023-02-06T22:53:55.269Z,103582.66
2023-02-06T22:56:34.974Z,103589.22
2023-02-06T22:59:06.127Z,103583.09
2023-02-06T23:01:39.926Z,103580.41
2023-02-06T23:04:11.538Z,103586.63
2023-02-06T23:06:41.965Z,103598.19
2023-02-06T23:09:15.026Z,103594.13
2023-02-06T23:11:45.461Z,103603.03
2023-02-06T23:14:16.638Z,103598.47
2023-02-06T23:16:50.005Z,103603.50
2023-02-06T23:19:20.847Z,103596.69
2023-02-06T23:21:51.908Z,103601.09
2023-02-06T23:24:22.336Z,103602.34
2023-02-06T23:26:53.938Z,103602.09
2023-02-06T23:29:24.952Z,103598.69
2023-02-06T23:31:58.603Z,103593.72
2023-02-06T23:34:28.874Z,103591.91
2023-02-06T23:36:59.046Z,103595.94
2023-02-06T23:39:29.289Z,103591.06
2023-02-06T23:41:59.477Z,103583.09
2023-02-06T23:44:29.929Z,103588.38
2023-02-06T23:47:03.027Z,103598.06
2023-02-06T23:49:33.232Z,103595.94
2023-02-06T23:52:03.325Z,103589.78
2023-02-06T23:54:33.597Z,103587.31
2023-02-06T23:57:03.723Z,103581.84
2023-02-06T23:59:33.940Z,103575.69
